KPUW

Pullman / Moscow Regional Airport

Pullman/Moscow, Washington, USA
KPUW 241731Z 2418/2518 27007KT P6SM SCT070 FM242000 27011G16KT P6SM FEW060 FM250200 VRB02KT P6SM FEW150 FM251300 10008KT P6SM FEW150
Issued Valid From Valid To
Sep-24 @ 17:31 UTC
(2 hours ago)
Sep-24 @ 18:00 UTC
(2 hours ago)
Sep-25 @ 18:00 UTC
(in 22 hours)
Sep-24 @ 18:00 to Sep-24 @ 20:00
KPUW 241731Z 2418/2518 27007KT P6SM SCT070
Wind Visibility Clouds
270° at 7 knots Greater than 6 miles
  • Scattered at 7,000' AGL
From Sep-24 @ 20:00 to Sep-25 @ 02:00
FM242000 27011G16KT P6SM FEW060
Wind Visibility Clouds
270° at 11 knots
 Gusting to 16 knots
Greater than 6 miles
  • Few at 6,000' AGL
From Sep-25 @ 02:00 to Sep-25 @ 13:00
FM250200 VRB02KT P6SM FEW150
Wind Visibility Clouds
Variable at 2 knots Greater than 6 miles
  • Few at 15,000' AGL
From Sep-25 @ 13:00 to Sep-25 @ 18:00
FM251300 10008KT P6SM FEW150
Wind Visibility Clouds
100° at 8 knots Greater than 6 miles
  • Few at 15,000' AGL
KPUW 241731Z 2418/2518 27007KT P6SM SCT070 FM242000 27011G16KT P6SM FEW060 FM250200 VRB02KT P6SM FEW150 FM251300 10008KT P6SM FEW150
Issued Sep-24 @ 17:31 UTC
(2 hours ago)
Valid From Sep-24 @ 18:00 UTC
(2 hours ago)
Valid To Sep-25 @ 18:00 UTC
(in 22 hours)
Sep-24 @ 18:00 - Sep-24 @ 20:00
Wind Visibility
270° at 7 knots Greater than 6 miles
Clouds
  • Scattered at 7,000' AGL
From Sep-24 @ 20:00 - Sep-25 @ 02:00
Wind Visibility
270° at 11 knots
 Gusting to 16 knots
Greater than 6 miles
Clouds
  • Few at 6,000' AGL
From Sep-25 @ 02:00 - Sep-25 @ 13:00
Wind Visibility
Variable at 2 knots Greater than 6 miles
Clouds
  • Few at 15,000' AGL
From Sep-25 @ 13:00 - Sep-25 @ 18:00
Wind Visibility
100° at 8 knots Greater than 6 miles
Clouds
  • Few at 15,000' AGL